TimeMST,TemperatureF,Dew PointF,Humidity,Sea Level PressureIn,VisibilityMPH,Wind Direction,Wind SpeedMPH,Gust SpeedMPH,PrecipitationIn,Events,Conditions,WindDirDegrees,DateUTC
12:40 AM,66.2,64.4,94,29.91,10.0,North,5.8,-,N/A,,Clear,10,2012-10-31 07:40:00
1:42 AM,64.4,62.6,94,29.92,8.0,North,8.1,-,N/A,,Clear,360,2012-10-31 08:42:00
2:42 AM,64.4,62.6,94,29.90,8.0,NNE,8.1,-,N/A,,Clear,20,2012-10-31 09:42:00
3:40 AM,64.4,62.6,94,29.90,8.0,North,6.9,-,N/A,,Clear,360,2012-10-31 10:40:00
4:45 AM,64.4,62.6,94,29.91,8.0,North,5.8,-,N/A,,Clear,10,2012-10-31 11:45:00
5:41 AM,66.2,64.4,94,29.91,3.0,North,5.8,-,N/A,,Clear,360,2012-10-31 12:41:00
6:40 AM,64.4,62.6,94,29.92,3.0,NW,6.9,-,N/A,,Clear,320,2012-10-31 13:40:00
7:45 AM,69.8,66.2,88,29.95,7.0,SW,8.1,-,N/A,,Clear,230,2012-10-31 14:45:00
8:42 AM,73.4,69.8,88,29.97,8.0,East,8.1,-,N/A,,Clear,80,2012-10-31 15:42:00
9:41 AM,78.8,68.0,69,29.98,10.0,SE,8.1,-,N/A,,Clear,140,2012-10-31 16:41:00
10:52 AM,82.4,64.4,54,29.98,12.0,South,8.1,-,N/A,,Clear,180,2012-10-31 17:52:00
11:49 AM,82.4,66.2,58,29.94,12.0,South,8.1,-,N/A,,Clear,170,2012-10-31 18:49:00
12:45 PM,82.4,66.2,58,29.90,12.0,South,8.1,-,N/A,,Partly Cloudy,180,2012-10-31 19:45:00
1:40 PM,82.4,66.2,58,29.88,14.0,SW,8.1,-,N/A,,Clear,220,2012-10-31 20:40:00
2:42 PM,82.4,64.4,54,29.86,14.0,WSW,8.1,-,N/A,,Clear,240,2012-10-31 21:42:00
3:40 PM,80.6,64.4,58,29.85,14.0,SW,5.8,-,N/A,,Clear,220,2012-10-31 22:40:00
4:43 PM,78.8,64.4,61,29.84,14.0,SW,6.9,-,N/A,,Clear,230,2012-10-31 23:43:00
5:40 PM,73.4,64.4,73,29.87,10.0,WSW,8.1,-,N/A,,Clear,250,2012-11-01 00:40:00
6:44 PM,71.6,64.4,78,29.88,10.0,Calm,Calm,-,N/A,,Clear,0,2012-11-01 01:44:00
7:40 PM,69.8,64.4,83,29.89,10.0,Calm,Calm,-,N/A,,Clear,0,2012-11-01 02:40:00
8:41 PM,69.8,64.4,83,29.91,10.0,North,8.1,-,N/A,,Clear,350,2012-11-01 03:41:00
9:42 PM,66.2,64.4,94,29.91,10.0,Calm,Calm,-,N/A,,Clear,0,2012-11-01 04:42:00
10:45 PM,66.2,62.6,88,29.91,8.0,NNE,6.9,-,N/A,,Clear,20,2012-11-01 05:45:00